Airfield :
LOGIN :

Register | Disclaimer

   EN    FR    IT 

 










Legend :    VFR   Marginal VFR   IFR   Intensive IFR   Very Intensive IFR
Visi :
Ceiling :
>= 8 km
>= 3000ft
5 to 8 km
1000 to 3000 ft
1500m to 5 km
500 to 1000 ft
800 to 1500m
200 to 500 ft
< 800m
< 200 ft
Symbols :   Thunderstorms  Fog  Heavy snow  Heavy precipitations  Wind > 20 kt
SIGMETs :     Misc.  Thunderstorms  Icing  Turbulence  Mountain Waves  Volcanic Ashes






- Airport Elevation : 1325 ft
- IATA code : EBU


LFMH - St-Etienne Boutheon

CURRENT METAR :
  • 221130Z AUTO VRB03KT 9999 BKN033 16/08 Q1019 TEMPO SCT045TCU

EXPIRED METARs :
  • 221100Z AUTO VRB04KT 9999 SCT034 16/08 Q1019 NOSIG
  • 221030Z AUTO VRB03KT 9999 FEW028 15/08 Q1019 NOSIG
  • 221000Z AUTO VRB03KT 9999 FEW037 14/08 Q1020 NOSIG
  • 220930Z AUTO VRB02KT CAVOK 14/08 Q1020 NOSIG
  • 220900Z AUTO VRB02KT CAVOK 13/08 Q1020 NOSIG

TAF TAF LFMH
Valid from the 22 at 12:00 until the 23 at 12:00 UTC


221100Z 2212/2312 VRB05KT 9999 FEW040
TEMPO 2212/2217 SCT045TCU
BECMG 2219/2221 CAVOK
BECMG 2309/2311 34006KT
ATIS : +33 4 77 36 17 51



MET'MAP, your aeronautical weather chart ! - Copyright ORBIFLY December 2007 - Disclaimer

ORBIFLY MET'MAP TEAM :

Programming & Development : Alexandra Zaïnal
Concept & original design : Baudouin d'Aumeries
Assistance for programming : Marc-Olivier Méhu
Technical & hardware support : Manuel Goepfert

Contact : metmap@orbifly.com




SOURCES & CREDITS :

   NOAA